createdAt,value
2018-06-05T00:01:40.045Z,60.70
2018-06-05T00:04:07.640Z,60.90
2018-06-05T00:06:35.761Z,60.80
2018-06-05T00:09:05.297Z,61.00
2018-06-05T00:11:32.844Z,61.20
2018-06-05T00:14:00.410Z,61.00
2018-06-05T00:18:56.365Z,61.30
2018-06-05T00:21:23.928Z,60.60
2018-06-05T00:23:52.907Z,60.60
2018-06-05T00:26:20.416Z,61.30
2018-06-05T00:28:47.917Z,61.50
2018-06-05T00:31:15.409Z,61.70
2018-06-05T00:33:42.909Z,62.10
2018-06-05T00:36:10.469Z,61.80
2018-06-05T00:38:38.131Z,61.80
2018-06-05T00:50:50.676Z,63.00
2018-06-05T00:53:18.242Z,62.80
2018-06-05T00:55:45.858Z,63.20
2018-06-05T00:58:13.337Z,63.20
2018-06-05T01:00:41.680Z,63.10
2018-06-05T01:03:09.158Z,63.30
2018-06-05T01:05:37.095Z,63.20
2018-06-05T01:08:04.638Z,63.10
2018-06-05T01:13:00.381Z,63.10
2018-06-05T01:15:27.920Z,63.40
2018-06-05T01:17:55.455Z,63.30
2018-06-05T01:20:22.963Z,63.50
2018-06-05T01:25:17.925Z,63.40
2018-06-05T01:27:45.527Z,63.40
2018-06-05T01:32:40.451Z,64.00
2018-06-05T01:35:08.025Z,63.80
2018-06-05T01:37:35.960Z,63.70
2018-06-05T01:40:03.494Z,64.00
2018-06-05T01:42:31.015Z,63.40
2018-06-05T01:44:58.475Z,63.60
2018-06-05T01:47:26.928Z,64.10
2018-06-05T01:49:55.183Z,64.20
2018-06-05T01:54:50.075Z,64.20
2018-06-05T01:59:45.574Z,64.30
2018-06-05T02:04:40.460Z,64.10
2018-06-05T02:07:07.980Z,64.10
2018-06-05T02:19:25.243Z,64.40
2018-06-05T02:21:53.466Z,64.40
2018-06-05T02:24:20.992Z,63.60
2018-06-05T02:26:49.321Z,64.90
2018-06-05T02:29:16.870Z,65.40
2018-06-05T02:31:45.345Z,65.20
2018-06-05T02:34:12.884Z,65.00
2018-06-05T02:36:40.931Z,64.80
2018-06-05T02:39:08.498Z,64.60
2018-06-05T02:41:36.310Z,64.00
2018-06-05T02:46:31.324Z,64.00
2018-06-05T02:49:00.452Z,64.10
2018-06-05T02:51:27.976Z,64.00
2018-06-05T02:53:57.055Z,64.40
2018-06-05T02:56:24.607Z,64.30
2018-06-05T02:58:52.383Z,64.00
2018-06-05T03:01:21.523Z,63.90
2018-06-05T03:20:58.207Z,64.80
2018-06-05T03:23:26.363Z,65.00
2018-06-05T03:25:53.899Z,65.20
2018-06-05T03:28:21.477Z,65.30
2018-06-05T03:30:49.184Z,65.50
2018-06-05T03:33:16.684Z,65.30
2018-06-05T03:35:45.601Z,65.80
2018-06-05T03:38:13.135Z,66.10
2018-06-05T03:40:40.744Z,65.80
2018-06-05T03:43:10.054Z,65.70
2018-06-05T03:45:37.569Z,66.10
2018-06-05T03:48:05.478Z,65.80
2018-06-05T03:57:56.296Z,65.80
2018-06-05T04:00:25.399Z,66.30
2018-06-05T04:02:52.927Z,66.30
2018-06-05T04:05:20.506Z,66.40
2018-06-05T04:07:48.061Z,65.90
2018-06-05T04:10:15.595Z,66.50
2018-06-05T04:12:43.490Z,66.30
2018-06-05T04:15:11.076Z,65.30
2018-06-05T04:17:38.591Z,65.00
2018-06-05T04:20:06.145Z,65.10
2018-06-05T04:22:33.909Z,64.30
2018-06-05T04:27:28.984Z,64.00
2018-06-05T04:29:56.550Z,64.10
2018-06-05T04:32:24.085Z,64.00
2018-06-05T04:34:51.603Z,63.40
2018-06-05T04:37:19.117Z,63.30
2018-06-05T04:39:46.601Z,63.20
2018-06-05T04:42:14.066Z,63.80
2018-06-05T04:44:41.627Z,62.80
2018-06-05T04:47:09.114Z,63.10
2018-06-05T04:49:36.660Z,62.60
2018-06-05T04:52:04.198Z,62.30
2018-06-05T04:54:31.760Z,63.20
2018-06-05T04:56:59.328Z,62.70
2018-06-05T04:59:26.832Z,62.50
2018-06-05T05:01:54.335Z,62.40
2018-06-05T05:04:21.904Z,62.00
2018-06-05T05:06:49.514Z,61.80
2018-06-05T05:09:19.595Z,61.80
2018-06-05T05:11:47.252Z,61.50
2018-06-05T05:14:14.747Z,61.70
2018-06-05T05:16:57.117Z,61.00
2018-06-05T05:19:24.688Z,61.20
2018-06-05T05:21:52.200Z,61.20
2018-06-05T05:24:19.669Z,61.70
2018-06-05T05:26:47.195Z,60.70
2018-06-05T05:31:42.149Z,60.10
2018-06-05T05:34:09.703Z,59.20
2018-06-05T05:36:37.236Z,59.20
2018-06-05T05:39:06.201Z,59.00
2018-06-05T05:41:33.771Z,58.90
2018-06-05T05:44:01.304Z,59.00
2018-06-05T05:46:28.900Z,58.40
2018-06-05T05:48:56.432Z,57.90
2018-06-05T05:51:23.979Z,59.10
2018-06-05T05:53:51.440Z,58.90
2018-06-05T05:56:18.935Z,58.00
2018-06-05T05:58:46.524Z,58.10
2018-06-05T06:01:14.119Z,56.60
2018-06-05T06:03:41.657Z,56.50
2018-06-05T06:06:09.185Z,56.00
2018-06-05T06:11:05.063Z,55.00
2018-06-05T06:13:32.630Z,55.10
2018-06-05T06:18:27.572Z,55.70
2018-06-05T06:20:55.087Z,55.50
2018-06-05T06:25:50.185Z,54.60
2018-06-05T06:28:17.723Z,53.90
2018-06-05T06:30:45.313Z,53.80
2018-06-05T06:33:12.869Z,53.70
2018-06-05T06:35:40.337Z,51.90
2018-06-05T06:38:07.914Z,52.30
2018-06-05T06:40:35.565Z,51.30
2018-06-05T06:52:48.860Z,47.30
2018-06-05T07:05:01.407Z,44.60
2018-06-05T07:07:28.913Z,43.80
2018-06-05T07:09:56.514Z,44.40
2018-06-05T07:12:23.997Z,43.60
2018-06-05T07:14:51.613Z,42.10
2018-06-05T07:17:19.133Z,43.10
2018-06-05T07:19:46.681Z,41.40
2018-06-05T07:22:14.188Z,42.10
2018-06-05T07:24:41.661Z,42.10
2018-06-05T07:27:09.209Z,41.60
2018-06-05T07:29:36.771Z,40.20
2018-06-05T07:32:04.289Z,40.70
2018-06-05T07:34:31.838Z,40.50
2018-06-05T07:36:59.386Z,40.20
2018-06-05T07:39:27.013Z,43.10
2018-06-05T07:41:55.989Z,39.90
2018-06-05T07:44:25.701Z,40.70
2018-06-05T07:46:53.816Z,40.50
2018-06-05T07:51:48.997Z,41.50
2018-06-05T07:54:16.541Z,41.60
2018-06-05T07:56:44.101Z,41.90
2018-06-05T07:59:11.647Z,42.50
2018-06-05T08:01:39.176Z,42.70
2018-06-05T08:04:06.735Z,44.10
2018-06-05T08:06:34.303Z,44.20
2018-06-05T08:09:01.877Z,44.80
2018-06-05T08:13:57.788Z,44.70
2018-06-05T08:16:25.352Z,46.20
2018-06-05T08:18:52.880Z,45.30
2018-06-05T08:21:20.405Z,45.50
2018-06-05T08:23:47.982Z,46.70
2018-06-05T08:26:15.585Z,47.30
2018-06-05T08:28:43.408Z,46.80
2018-06-05T08:31:11.754Z,46.50
2018-06-05T08:33:39.279Z,47.00
2018-06-05T08:36:06.837Z,47.90
2018-06-05T08:38:35.124Z,47.10
2018-06-05T08:41:04.207Z,48.40
2018-06-05T08:43:31.776Z,46.90
2018-06-05T08:45:59.911Z,47.20
2018-06-05T08:48:27.443Z,49.60
2018-06-05T08:50:55.055Z,51.10
2018-06-05T08:53:22.576Z,50.80
2018-06-05T08:55:50.164Z,49.40
2018-06-05T08:58:17.709Z,49.90
2018-06-05T09:00:45.209Z,48.80
2018-06-05T09:03:12.684Z,48.00
2018-06-05T09:05:40.468Z,48.20
2018-06-05T09:08:08.087Z,49.20
2018-06-05T09:10:35.634Z,49.90
2018-06-05T09:13:03.784Z,48.80
2018-06-05T09:15:31.825Z,48.90
2018-06-05T09:17:59.422Z,49.00
2018-06-05T09:20:27.797Z,47.40
2018-06-05T09:22:56.220Z,48.00
2018-06-05T09:25:25.054Z,47.20
2018-06-05T09:27:53.014Z,46.80
2018-06-05T09:30:20.533Z,46.70
2018-06-05T09:32:48.721Z,48.00
2018-06-05T09:35:16.231Z,48.00
2018-06-05T09:37:43.793Z,48.20
2018-06-05T09:40:11.493Z,47.70
2018-06-05T09:45:07.246Z,47.90
2018-06-05T09:47:34.862Z,48.50
2018-06-05T09:50:02.540Z,48.50
2018-06-05T09:52:30.195Z,49.10
2018-06-05T09:54:57.674Z,48.20
2018-06-05T09:57:25.223Z,47.90
2018-06-05T09:59:53.799Z,48.00
2018-06-05T10:02:21.344Z,47.90
2018-06-05T10:04:48.927Z,46.90
2018-06-05T10:14:41.168Z,46.70
2018-06-05T10:17:08.755Z,46.00
2018-06-05T10:19:36.337Z,45.70
2018-06-05T10:22:03.869Z,45.90
2018-06-05T10:27:06.158Z,45.10
2018-06-05T10:29:33.745Z,45.70
2018-06-05T10:32:01.278Z,44.70
2018-06-05T10:34:28.814Z,44.60
2018-06-05T10:36:57.688Z,44.60
2018-06-05T10:39:25.240Z,44.50
2018-06-05T10:41:53.255Z,44.50
2018-06-05T10:46:57.615Z,45.40
2018-06-05T10:49:25.373Z,44.60
2018-06-05T10:51:52.908Z,44.60
2018-06-05T10:54:23.877Z,44.60
2018-06-05T10:56:51.445Z,43.50
2018-06-05T10:59:20.475Z,43.40
2018-06-05T11:01:48.093Z,43.70
2018-06-05T11:04:15.596Z,44.40
2018-06-05T11:06:43.163Z,42.70
2018-06-05T11:09:14.395Z,43.80
2018-06-05T11:11:41.978Z,43.40
2018-06-05T11:14:09.499Z,42.10
2018-06-05T11:16:37.024Z,42.00
2018-06-05T11:19:05.673Z,42.90
2018-06-05T11:21:34.804Z,42.50
2018-06-05T11:24:02.506Z,43.00
2018-06-05T11:26:30.100Z,41.50
2018-06-05T11:28:58.233Z,42.20
2018-06-05T11:31:25.759Z,42.00
2018-06-05T11:33:53.312Z,41.80
2018-06-05T11:36:20.934Z,41.40
2018-06-05T11:38:48.459Z,41.50
2018-06-05T11:41:16.000Z,41.00
2018-06-05T11:43:43.568Z,41.40
2018-06-05T11:46:11.205Z,41.50
2018-06-05T11:51:06.570Z,40.30
2018-06-05T11:53:34.190Z,40.80
2018-06-05T11:58:29.156Z,40.80
2018-06-05T12:00:57.175Z,41.70
2018-06-05T12:03:25.616Z,40.20
2018-06-05T12:05:53.179Z,41.30
2018-06-05T12:08:21.076Z,38.80
2018-06-05T12:10:48.621Z,40.90
2018-06-05T12:13:16.729Z,39.90
2018-06-05T12:15:44.341Z,40.00
2018-06-05T12:18:12.396Z,38.70
2018-06-05T12:20:39.947Z,39.30
2018-06-05T12:23:07.514Z,39.20
2018-06-05T12:28:02.557Z,40.60
2018-06-05T12:30:30.117Z,41.00
2018-06-05T12:32:57.687Z,41.70
2018-06-05T12:35:25.265Z,41.20
2018-06-05T12:37:52.835Z,41.10
2018-06-05T12:40:20.345Z,41.30
2018-06-05T12:42:47.890Z,40.50
2018-06-05T12:45:15.513Z,40.30
2018-06-05T12:47:43.017Z,41.10
2018-06-05T12:50:10.673Z,40.40
2018-06-05T12:52:38.284Z,40.40
2018-06-05T12:55:05.873Z,38.70
2018-06-05T12:57:33.397Z,38.20
2018-06-05T13:00:00.972Z,40.00
2018-06-05T13:04:57.720Z,40.40
2018-06-05T13:07:26.028Z,40.40
2018-06-05T13:09:54.134Z,41.10
2018-06-05T13:12:21.953Z,41.10
2018-06-05T13:17:17.702Z,39.80
2018-06-05T13:19:45.253Z,40.20
2018-06-05T13:22:13.366Z,39.10
2018-06-05T13:24:40.957Z,39.60
2018-06-05T13:27:08.556Z,40.10
2018-06-05T13:29:36.044Z,37.90
2018-06-05T13:32:04.088Z,39.30
2018-06-05T13:34:32.402Z,41.20
2018-06-05T13:37:00.140Z,41.30
2018-06-05T13:39:27.778Z,41.00
2018-06-05T13:41:55.314Z,41.20
2018-06-05T13:44:22.830Z,40.80
2018-06-05T13:46:50.390Z,41.00
2018-06-05T13:49:18.102Z,39.80
2018-06-05T13:51:45.669Z,40.30
2018-06-05T13:54:13.268Z,40.30
2018-06-05T13:56:40.867Z,40.50
2018-06-05T13:59:08.465Z,41.30
2018-06-05T14:01:36.048Z,40.90
2018-06-05T14:04:03.576Z,40.70
2018-06-05T14:06:31.195Z,40.20
2018-06-05T14:08:58.745Z,40.50
2018-06-05T14:16:23.373Z,40.80
2018-06-05T14:21:19.501Z,40.70
2018-06-05T14:23:47.793Z,40.70
2018-06-05T14:26:15.346Z,41.00
2018-06-05T14:28:42.938Z,40.70
2018-06-05T14:31:10.454Z,40.70
2018-06-05T14:33:38.007Z,40.70
2018-06-05T14:36:05.871Z,40.20
2018-06-05T14:38:34.535Z,40.60
2018-06-05T14:41:02.134Z,41.00
2018-06-05T14:43:30.745Z,40.70
2018-06-05T14:45:59.219Z,40.10
2018-06-05T14:48:26.792Z,41.40
2018-06-05T14:50:54.333Z,41.00
2018-06-05T14:53:22.525Z,40.80
2018-06-05T14:55:50.837Z,41.00
2018-06-05T14:58:19.069Z,41.40
2018-06-05T15:00:46.630Z,41.80
2018-06-05T15:03:14.196Z,41.00
2018-06-05T15:05:42.320Z,41.40
2018-06-05T15:08:09.824Z,41.80
2018-06-05T15:10:38.005Z,42.30
2018-06-05T15:13:05.777Z,41.70
2018-06-05T15:15:33.265Z,41.70
2018-06-05T15:18:00.834Z,42.00
2018-06-05T15:20:29.188Z,42.00
2018-06-05T15:22:56.705Z,42.00
2018-06-05T15:25:27.858Z,42.10
2018-06-05T15:27:55.445Z,41.00
2018-06-05T15:30:23.009Z,42.20
2018-06-05T15:32:50.553Z,42.10
2018-06-05T15:35:18.496Z,42.30
2018-06-05T15:37:46.844Z,41.20
2018-06-05T15:45:10.178Z,40.70
2018-06-05T15:52:33.385Z,42.00
2018-06-05T15:55:00.935Z,41.70
2018-06-05T15:57:28.464Z,42.10
2018-06-05T15:59:56.060Z,41.10
2018-06-05T16:02:23.729Z,42.00
2018-06-05T16:04:51.736Z,42.00
2018-06-05T16:07:21.299Z,40.30
2018-06-05T16:09:50.142Z,40.30
2018-06-05T16:14:49.213Z,41.40
2018-06-05T16:17:17.677Z,41.10
2018-06-05T16:19:45.222Z,41.10
2018-06-05T16:22:12.922Z,41.30
2018-06-05T16:24:40.564Z,41.70
2018-06-05T16:27:08.064Z,41.10
2018-06-05T16:29:35.607Z,40.40
2018-06-05T16:32:03.178Z,41.10
2018-06-05T16:34:30.753Z,41.70
2018-06-05T16:36:58.305Z,42.40
2018-06-05T16:39:25.853Z,41.30
2018-06-05T16:41:53.483Z,41.00
2018-06-05T16:44:21.008Z,40.90
2018-06-05T16:46:48.513Z,42.20
2018-06-05T16:49:16.131Z,41.90
2018-06-05T16:51:43.749Z,41.70
2018-06-05T16:54:11.261Z,42.60
2018-06-05T16:56:38.776Z,42.50
2018-06-05T16:59:06.382Z,40.00
2018-06-05T17:01:33.901Z,41.30
2018-06-05T17:04:01.461Z,40.50
2018-06-05T17:06:29.069Z,41.10
2018-06-05T17:08:56.642Z,41.90
2018-06-05T17:11:24.158Z,41.80
2018-06-05T17:13:51.804Z,42.10
2018-06-05T17:16:19.349Z,42.40
2018-06-05T17:18:46.884Z,43.40
2018-06-05T17:21:14.402Z,42.60
2018-06-05T17:23:42.002Z,42.10
2018-06-05T17:26:09.561Z,42.80
2018-06-05T17:28:37.109Z,42.00
2018-06-05T17:31:04.962Z,41.20
2018-06-05T17:33:34.133Z,41.80
2018-06-05T17:36:01.861Z,41.90
2018-06-05T17:38:29.421Z,41.50
2018-06-05T17:40:57.001Z,42.00
2018-06-05T17:43:24.600Z,42.60
2018-06-05T17:45:52.212Z,43.20
2018-06-05T17:48:19.910Z,41.20
2018-06-05T17:50:47.432Z,42.80
2018-06-05T17:53:15.056Z,42.00
2018-06-05T17:55:42.648Z,42.40
2018-06-05T17:58:10.775Z,41.00
2018-06-05T18:00:38.376Z,41.70
2018-06-05T18:03:06.557Z,41.60
2018-06-05T18:05:34.144Z,42.00
2018-06-05T18:08:01.683Z,42.40
2018-06-05T18:10:29.230Z,42.40
2018-06-05T18:12:56.861Z,42.40
2018-06-05T18:15:24.384Z,42.40
2018-06-05T18:20:19.321Z,42.40
2018-06-05T18:22:46.905Z,42.40
2018-06-05T18:25:14.479Z,42.40
2018-06-05T18:27:42.113Z,42.60
2018-06-05T18:30:09.673Z,43.00
2018-06-05T18:35:04.755Z,43.20
2018-06-05T18:37:32.457Z,43.40
2018-06-05T18:40:00.529Z,44.00
2018-06-05T18:42:28.523Z,43.90
2018-06-05T18:44:56.111Z,44.10
2018-06-05T18:47:23.701Z,45.00
2018-06-05T18:49:51.265Z,44.40
2018-06-05T18:52:18.892Z,44.60
2018-06-05T18:54:46.440Z,45.30
2018-06-05T18:57:13.975Z,45.20
2018-06-05T18:59:41.506Z,45.30
2018-06-05T19:02:09.050Z,46.00
2018-06-05T19:04:36.967Z,45.60
2018-06-05T19:07:05.267Z,45.70
2018-06-05T19:09:33.113Z,46.00
2018-06-05T19:12:01.076Z,46.00
2018-06-05T19:14:28.583Z,46.80
2018-06-05T19:16:56.142Z,46.30
2018-06-05T19:19:23.674Z,46.30
2018-06-05T19:21:51.250Z,46.20
2018-06-05T19:24:18.855Z,46.80
2018-06-05T19:26:46.363Z,47.10
2018-06-05T19:29:13.994Z,46.80
2018-06-05T19:31:41.563Z,47.10
2018-06-05T19:34:09.911Z,47.10
2018-06-05T19:36:37.910Z,47.20
2018-06-05T19:39:07.048Z,47.80
2018-06-05T19:41:34.640Z,48.00
2018-06-05T19:44:02.230Z,48.20
2018-06-05T19:46:29.858Z,48.70
2018-06-05T19:48:57.427Z,48.60
2018-06-05T19:51:24.973Z,49.20
2018-06-05T19:53:52.500Z,49.10
2018-06-05T19:58:47.575Z,49.30
2018-06-05T20:01:15.240Z,49.30
2018-06-05T20:03:42.864Z,49.70
2018-06-05T20:06:10.558Z,50.10
2018-06-05T20:08:38.105Z,50.10
2018-06-05T20:11:05.892Z,50.10
2018-06-05T20:13:33.418Z,50.20
2018-06-05T20:16:00.977Z,50.30
2018-06-05T20:18:28.568Z,50.60
2018-06-05T20:23:23.658Z,51.00
2018-06-05T20:25:51.261Z,51.10
2018-06-05T20:28:18.865Z,51.20
2018-06-05T20:30:46.402Z,51.40
2018-06-05T20:33:13.949Z,51.30
2018-06-05T20:35:41.541Z,51.20
2018-06-05T20:38:09.210Z,51.40
2018-06-05T20:40:36.796Z,51.50
2018-06-05T20:43:04.380Z,51.50
2018-06-05T20:45:31.939Z,51.50
2018-06-05T20:47:59.429Z,51.50
2018-06-05T20:50:27.076Z,51.50
2018-06-05T20:55:22.081Z,51.40
2018-06-05T20:57:49.676Z,51.50
2018-06-05T21:02:44.684Z,51.40
2018-06-05T21:07:39.760Z,51.50
2018-06-05T21:10:07.264Z,51.40
2018-06-05T21:12:34.858Z,51.50
2018-06-05T21:15:02.363Z,51.20
2018-06-05T21:17:29.907Z,51.40
2018-06-05T21:19:57.520Z,51.60
2018-06-05T21:22:25.088Z,51.80
2018-06-05T21:24:52.693Z,51.70
2018-06-05T21:27:20.237Z,51.90
2018-06-05T21:29:47.822Z,51.90
2018-06-05T21:32:15.396Z,51.80
2018-06-05T21:37:10.349Z,51.90
2018-06-05T21:39:37.927Z,51.90
2018-06-05T21:44:32.941Z,52.10
2018-06-05T21:47:00.535Z,52.20
2018-06-05T21:49:27.992Z,52.10
2018-06-05T21:59:18.024Z,52.60
2018-06-05T22:01:45.547Z,53.10
2018-06-05T22:06:40.696Z,53.30
2018-06-05T22:09:09.341Z,53.30
2018-06-05T22:11:36.869Z,53.20
2018-06-05T22:14:04.444Z,53.20
2018-06-05T22:16:31.937Z,53.30
2018-06-05T22:18:59.595Z,53.40
2018-06-05T22:21:27.162Z,53.40
2018-06-05T22:23:54.660Z,53.10
2018-06-05T22:26:22.198Z,53.30
2018-06-05T22:28:49.723Z,53.50
2018-06-05T22:31:17.265Z,53.00
2018-06-05T22:33:44.777Z,53.10
2018-06-05T22:36:12.301Z,53.50
2018-06-05T22:38:39.797Z,53.50
2018-06-05T22:41:07.377Z,53.50
2018-06-05T22:43:34.920Z,53.40
2018-06-05T22:48:29.969Z,53.20
2018-06-05T22:50:57.528Z,53.00
2018-06-05T22:53:25.067Z,53.10
2018-06-05T22:55:52.529Z,52.90
2018-06-05T22:58:20.091Z,52.70
2018-06-05T23:00:47.598Z,52.90
2018-06-05T23:03:15.159Z,52.60
2018-06-05T23:05:42.871Z,52.70
2018-06-05T23:08:10.427Z,52.80
2018-06-05T23:13:05.462Z,52.70
2018-06-05T23:15:32.984Z,52.60
2018-06-05T23:18:00.557Z,53.30
2018-06-05T23:20:28.054Z,52.70
2018-06-05T23:22:55.605Z,52.70
2018-06-05T23:25:23.148Z,52.50
2018-06-05T23:27:50.666Z,52.60
2018-06-05T23:30:18.184Z,52.50
2018-06-05T23:32:45.713Z,52.90
2018-06-05T23:35:13.242Z,52.60
2018-06-05T23:37:40.751Z,52.80
2018-06-05T23:40:08.315Z,52.80
2018-06-05T23:42:35.917Z,53.10
2018-06-05T23:45:03.628Z,53.00
2018-06-05T23:47:31.117Z,53.10
2018-06-05T23:49:58.600Z,53.20
2018-06-05T23:52:26.181Z,53.10
2018-06-05T23:54:53.713Z,53.00
2018-06-05T23:59:48.688Z,53.00
